sensor_id;sensor_type;location;lat;lon;timestamp;temperature;humidity
18753;DHT22;9505;50.882;5.350;2022-09-25T00:00:41;13.50;99.90
18753;DHT22;9505;50.882;5.350;2022-09-25T00:03:08;13.40;99.90
18753;DHT22;9505;50.882;5.350;2022-09-25T00:05:35;13.40;99.90
18753;DHT22;9505;50.882;5.350;2022-09-25T00:08:02;13.30;99.90
18753;DHT22;9505;50.882;5.350;2022-09-25T00:10:28;13.30;99.90
18753;DHT22;9505;50.882;5.350;2022-09-25T00:12:54;13.20;99.90
18753;DHT22;9505;50.882;5.350;2022-09-25T00:15:20;13.20;99.90
18753;DHT22;9505;50.882;5.350;2022-09-25T00:17:46;13.30;99.90
18753;DHT22;9505;50.882;5.350;2022-09-25T00:20:14;13.20;99.90
18753;DHT22;9505;50.882;5.350;2022-09-25T00:22:40;13.10;99.90
18753;DHT22;9505;50.882;5.350;2022-09-25T00:25:10;13.20;99.90
18753;DHT22;9505;50.882;5.350;2022-09-25T00:27:37;13.20;99.90
18753;DHT22;9505;50.882;5.350;2022-09-25T00:30:03;13.20;99.90
18753;DHT22;9505;50.882;5.350;2022-09-25T00:32:29;13.20;99.90
18753;DHT22;9505;50.882;5.350;2022-09-25T00:34:55;13.20;99.90
18753;DHT22;9505;50.882;5.350;2022-09-25T00:37:20;13.20;99.90
18753;DHT22;9505;50.882;5.350;2022-09-25T00:39:47;13.20;99.90
18753;DHT22;9505;50.882;5.350;2022-09-25T00:42:13;13.20;99.90
18753;DHT22;9505;50.882;5.350;2022-09-25T00:45:00;13.20;99.90
18753;DHT22;9505;50.882;5.350;2022-09-25T00:50:21;13.20;99.90
18753;DHT22;9505;50.882;5.350;2022-09-25T00:52:49;13.20;99.90
18753;DHT22;9505;50.882;5.350;2022-09-25T00:55:18;13.20;99.90
18753;DHT22;9505;50.882;5.350;2022-09-25T00:57:47;13.30;99.90
18753;DHT22;9505;50.882;5.350;2022-09-25T01:00:15;13.30;99.90
18753;DHT22;9505;50.882;5.350;2022-09-25T01:02:48;13.20;99.90
18753;DHT22;9505;50.882;5.350;2022-09-25T01:05:19;13.20;99.90
18753;DHT22;9505;50.882;5.350;2022-09-25T01:07:48;13.20;99.90
18753;DHT22;9505;50.882;5.350;2022-09-25T01:10:15;13.10;99.90
18753;DHT22;9505;50.882;5.350;2022-09-25T01:12:44;13.10;99.90
18753;DHT22;9505;50.882;5.350;2022-09-25T01:15:13;13.10;99.90
18753;DHT22;9505;50.882;5.350;2022-09-25T01:17:59;13.10;99.90
18753;DHT22;9505;50.882;5.350;2022-09-25T01:23:59;13.20;99.90
18753;DHT22;9505;50.882;5.350;2022-09-25T01:35:03;13.20;99.90
18753;DHT22;9505;50.882;5.350;2022-09-25T01:42:56;13.10;99.90
18753;DHT22;9505;50.882;5.350;2022-09-25T01:45:37;13.00;99.90
18753;DHT22;9505;50.882;5.350;2022-09-25T01:48:06;13.00;99.90
18753;DHT22;9505;50.882;5.350;2022-09-25T01:50:47;13.00;99.90
18753;DHT22;9505;50.882;5.350;2022-09-25T01:53:22;13.00;99.90
18753;DHT22;9505;50.882;5.350;2022-09-25T01:55:57;13.10;99.90
18753;DHT22;9505;50.882;5.350;2022-09-25T01:58:41;13.10;99.90
18753;DHT22;9505;50.882;5.350;2022-09-25T02:01:17;13.10;99.90
18753;DHT22;9505;50.882;5.350;2022-09-25T02:04:17;13.10;99.90
18753;DHT22;9505;50.882;5.350;2022-09-25T02:06:48;13.00;99.90
18753;DHT22;9505;50.882;5.350;2022-09-25T02:09:26;12.90;99.90
18753;DHT22;9505;50.882;5.350;2022-09-25T02:11:58;12.90;99.90
18753;DHT22;9505;50.882;5.350;2022-09-25T02:14:42;13.00;99.90
18753;DHT22;9505;50.882;5.350;2022-09-25T02:17:14;13.00;99.90
18753;DHT22;9505;50.882;5.350;2022-09-25T02:20:02;12.90;99.90
18753;DHT22;9505;50.882;5.350;2022-09-25T02:22:48;12.90;99.90
18753;DHT22;9505;50.882;5.350;2022-09-25T02:25:24;12.80;99.90
18753;DHT22;9505;50.882;5.350;2022-09-25T02:27:50;12.80;99.90
18753;DHT22;9505;50.882;5.350;2022-09-25T02:30:16;12.80;99.90
18753;DHT22;9505;50.882;5.350;2022-09-25T02:32:42;12.70;99.90
18753;DHT22;9505;50.882;5.350;2022-09-25T02:35:08;12.80;99.90
18753;DHT22;9505;50.882;5.350;2022-09-25T02:37:34;12.80;99.90
18753;DHT22;9505;50.882;5.350;2022-09-25T02:40:00;12.80;99.90
18753;DHT22;9505;50.882;5.350;2022-09-25T02:42:49;12.80;99.90
18753;DHT22;9505;50.882;5.350;2022-09-25T02:45:32;12.80;99.90
18753;DHT22;9505;50.882;5.350;2022-09-25T02:53:13;12.70;99.90
18753;DHT22;9505;50.882;5.350;2022-09-25T02:55:55;12.70;99.90
18753;DHT22;9505;50.882;5.350;2022-09-25T02:58:34;12.70;99.90
18753;DHT22;9505;50.882;5.350;2022-09-25T03:01:03;12.60;99.90
18753;DHT22;9505;50.882;5.350;2022-09-25T03:03:30;12.60;99.90
18753;DHT22;9505;50.882;5.350;2022-09-25T03:05:56;12.60;99.90
18753;DHT22;9505;50.882;5.350;2022-09-25T03:08:25;12.60;99.90
18753;DHT22;9505;50.882;5.350;2022-09-25T03:11:06;12.50;99.90
18753;DHT22;9505;50.882;5.350;2022-09-25T03:13:33;12.40;99.90
18753;DHT22;9505;50.882;5.350;2022-09-25T03:16:10;12.40;99.90
18753;DHT22;9505;50.882;5.350;2022-09-25T03:18:37;12.30;99.90
18753;DHT22;9505;50.882;5.350;2022-09-25T03:21:03;12.30;99.90
18753;DHT22;9505;50.882;5.350;2022-09-25T03:23:30;12.20;99.90
18753;DHT22;9505;50.882;5.350;2022-09-25T03:25:56;12.10;99.90
18753;DHT22;9505;50.882;5.350;2022-09-25T03:28:23;12.10;99.90
18753;DHT22;9505;50.882;5.350;2022-09-25T03:31:00;12.10;99.90
18753;DHT22;9505;50.882;5.350;2022-09-25T03:33:29;12.10;99.90
18753;DHT22;9505;50.882;5.350;2022-09-25T03:36:22;12.00;99.90
18753;DHT22;9505;50.882;5.350;2022-09-25T03:38:50;12.00;99.90
18753;DHT22;9505;50.882;5.350;2022-09-25T03:41:18;12.00;99.90
18753;DHT22;9505;50.882;5.350;2022-09-25T03:43:46;12.00;99.90
18753;DHT22;9505;50.882;5.350;2022-09-25T03:46:14;12.00;99.90
18753;DHT22;9505;50.882;5.350;2022-09-25T03:48:40;12.00;99.90
18753;DHT22;9505;50.882;5.350;2022-09-25T03:51:08;11.90;99.90
18753;DHT22;9505;50.882;5.350;2022-09-25T03:53:33;11.90;99.90
18753;DHT22;9505;50.882;5.350;2022-09-25T03:56:04;11.90;99.90
18753;DHT22;9505;50.882;5.350;2022-09-25T03:58:31;11.90;99.90
18753;DHT22;9505;50.882;5.350;2022-09-25T04:00:57;11.90;99.90
18753;DHT22;9505;50.882;5.350;2022-09-25T04:03:23;12.00;99.90
18753;DHT22;9505;50.882;5.350;2022-09-25T04:05:52;11.90;99.90
18753;DHT22;9505;50.882;5.350;2022-09-25T04:08:19;11.90;99.90
18753;DHT22;9505;50.882;5.350;2022-09-25T04:10:45;11.80;99.90
18753;DHT22;9505;50.882;5.350;2022-09-25T04:13:10;11.70;99.90
18753;DHT22;9505;50.882;5.350;2022-09-25T04:15:40;11.80;99.90
18753;DHT22;9505;50.882;5.350;2022-09-25T04:18:07;11.80;99.90
18753;DHT22;9505;50.882;5.350;2022-09-25T04:20:32;11.80;99.90
18753;DHT22;9505;50.882;5.350;2022-09-25T04:22:58;11.80;99.90
18753;DHT22;9505;50.882;5.350;2022-09-25T04:25:24;11.70;99.90
18753;DHT22;9505;50.882;5.350;2022-09-25T04:27:55;11.70;99.90
18753;DHT22;9505;50.882;5.350;2022-09-25T04:30:21;11.70;99.90
18753;DHT22;9505;50.882;5.350;2022-09-25T04:32:47;11.60;99.90
18753;DHT22;9505;50.882;5.350;2022-09-25T04:35:32;11.50;99.90
18753;DHT22;9505;50.882;5.350;2022-09-25T04:37:58;11.50;99.90
18753;DHT22;9505;50.882;5.350;2022-09-25T04:40:25;11.40;99.90
18753;DHT22;9505;50.882;5.350;2022-09-25T04:42:58;11.50;99.90
18753;DHT22;9505;50.882;5.350;2022-09-25T04:45:26;11.50;99.90
18753;DHT22;9505;50.882;5.350;2022-09-25T04:47:58;11.40;99.90
18753;DHT22;9505;50.882;5.350;2022-09-25T04:50:24;11.30;99.90
18753;DHT22;9505;50.882;5.350;2022-09-25T04:52:51;11.40;99.90
18753;DHT22;9505;50.882;5.350;2022-09-25T04:55:18;11.30;99.90
18753;DHT22;9505;50.882;5.350;2022-09-25T04:57:44;11.40;99.90
18753;DHT22;9505;50.882;5.350;2022-09-25T05:00:10;11.30;99.90
18753;DHT22;9505;50.882;5.350;2022-09-25T05:02:37;11.40;99.90
18753;DHT22;9505;50.882;5.350;2022-09-25T05:05:03;11.50;99.90
18753;DHT22;9505;50.882;5.350;2022-09-25T05:07:30;11.40;99.90
18753;DHT22;9505;50.882;5.350;2022-09-25T05:09:56;11.40;99.90
18753;DHT22;9505;50.882;5.350;2022-09-25T05:12:22;11.40;99.90
18753;DHT22;9505;50.882;5.350;2022-09-25T05:14:48;11.30;99.90
18753;DHT22;9505;50.882;5.350;2022-09-25T05:17:14;11.30;99.90
18753;DHT22;9505;50.882;5.350;2022-09-25T05:19:40;11.20;99.90
18753;DHT22;9505;50.882;5.350;2022-09-25T05:22:06;11.20;99.90
18753;DHT22;9505;50.882;5.350;2022-09-25T05:24:32;11.20;99.90
18753;DHT22;9505;50.882;5.350;2022-09-25T05:26:57;11.30;99.90
18753;DHT22;9505;50.882;5.350;2022-09-25T05:29:23;11.30;99.90
18753;DHT22;9505;50.882;5.350;2022-09-25T05:31:49;11.30;99.90
18753;DHT22;9505;50.882;5.350;2022-09-25T05:34:15;11.10;99.90
18753;DHT22;9505;50.882;5.350;2022-09-25T05:36:41;11.20;99.90
18753;DHT22;9505;50.882;5.350;2022-09-25T05:39:08;11.20;99.90
18753;DHT22;9505;50.882;5.350;2022-09-25T05:41:35;11.10;99.90
18753;DHT22;9505;50.882;5.350;2022-09-25T05:44:01;11.00;99.90
18753;DHT22;9505;50.882;5.350;2022-09-25T05:46:31;11.10;99.90
18753;DHT22;9505;50.882;5.350;2022-09-25T05:48:59;11.10;99.90
18753;DHT22;9505;50.882;5.350;2022-09-25T05:51:25;11.10;99.90
18753;DHT22;9505;50.882;5.350;2022-09-25T05:53:52;11.20;99.90
18753;DHT22;9505;50.882;5.350;2022-09-25T05:56:18;11.30;99.90
18753;DHT22;9505;50.882;5.350;2022-09-25T05:58:44;11.30;99.90
18753;DHT22;9505;50.882;5.350;2022-09-25T06:01:11;11.40;99.90
18753;DHT22;9505;50.882;5.350;2022-09-25T06:03:38;11.40;99.90
18753;DHT22;9505;50.882;5.350;2022-09-25T06:06:04;11.60;99.90
18753;DHT22;9505;50.882;5.350;2022-09-25T06:08:30;11.60;99.90
18753;DHT22;9505;50.882;5.350;2022-09-25T06:10:56;11.60;99.90
18753;DHT22;9505;50.882;5.350;2022-09-25T06:13:22;11.70;99.90
18753;DHT22;9505;50.882;5.350;2022-09-25T06:15:50;11.80;99.90
18753;DHT22;9505;50.882;5.350;2022-09-25T06:18:20;11.90;99.90
18753;DHT22;9505;50.882;5.350;2022-09-25T06:20:47;11.90;99.90
18753;DHT22;9505;50.882;5.350;2022-09-25T06:23:13;12.00;99.90
18753;DHT22;9505;50.882;5.350;2022-09-25T06:25:39;12.00;99.90
18753;DHT22;9505;50.882;5.350;2022-09-25T06:28:06;12.10;99.90
18753;DHT22;9505;50.882;5.350;2022-09-25T06:30:34;12.20;99.90
18753;DHT22;9505;50.882;5.350;2022-09-25T06:33:01;12.30;99.90
18753;DHT22;9505;50.882;5.350;2022-09-25T06:35:28;12.40;99.90
18753;DHT22;9505;50.882;5.350;2022-09-25T06:38:01;12.50;99.90
18753;DHT22;9505;50.882;5.350;2022-09-25T06:40:28;12.60;99.90
18753;DHT22;9505;50.882;5.350;2022-09-25T06:42:55;12.70;99.90
18753;DHT22;9505;50.882;5.350;2022-09-25T06:45:21;12.80;99.90
18753;DHT22;9505;50.882;5.350;2022-09-25T06:47:47;12.90;99.90
18753;DHT22;9505;50.882;5.350;2022-09-25T06:50:12;13.00;99.90
18753;DHT22;9505;50.882;5.350;2022-09-25T06:52:43;13.00;99.90
18753;DHT22;9505;50.882;5.350;2022-09-25T06:55:09;13.10;99.90
18753;DHT22;9505;50.882;5.350;2022-09-25T06:57:34;13.40;99.90
18753;DHT22;9505;50.882;5.350;2022-09-25T07:00:05;13.50;99.90
18753;DHT22;9505;50.882;5.350;2022-09-25T07:02:31;13.60;99.90
18753;DHT22;9505;50.882;5.350;2022-09-25T07:05:15;13.70;99.90
18753;DHT22;9505;50.882;5.350;2022-09-25T07:07:43;13.80;99.90
18753;DHT22;9505;50.882;5.350;2022-09-25T07:10:09;14.00;99.90
18753;DHT22;9505;50.882;5.350;2022-09-25T07:12:35;13.90;99.90
18753;DHT22;9505;50.882;5.350;2022-09-25T07:15:01;13.90;99.90
18753;DHT22;9505;50.882;5.350;2022-09-25T07:17:27;14.20;99.90
18753;DHT22;9505;50.882;5.350;2022-09-25T07:19:52;14.30;99.90
18753;DHT22;9505;50.882;5.350;2022-09-25T07:22:18;14.40;99.90
18753;DHT22;9505;50.882;5.350;2022-09-25T07:24:43;14.50;99.90
18753;DHT22;9505;50.882;5.350;2022-09-25T07:27:09;15.00;99.90
18753;DHT22;9505;50.882;5.350;2022-09-25T07:29:35;15.60;99.90
18753;DHT22;9505;50.882;5.350;2022-09-25T07:32:01;15.40;99.90
18753;DHT22;9505;50.882;5.350;2022-09-25T07:34:26;15.30;99.90
18753;DHT22;9505;50.882;5.350;2022-09-25T07:36:52;15.30;99.90
18753;DHT22;9505;50.882;5.350;2022-09-25T07:39:19;15.70;99.90
18753;DHT22;9505;50.882;5.350;2022-09-25T07:41:45;15.80;99.90
18753;DHT22;9505;50.882;5.350;2022-09-25T07:44:11;15.70;99.90
18753;DHT22;9505;50.882;5.350;2022-09-25T07:46:36;15.50;99.90
18753;DHT22;9505;50.882;5.350;2022-09-25T07:49:07;16.00;99.90
18753;DHT22;9505;50.882;5.350;2022-09-25T07:51:33;16.50;99.90
18753;DHT22;9505;50.882;5.350;2022-09-25T07:53:58;17.50;99.90
18753;DHT22;9505;50.882;5.350;2022-09-25T07:56:25;19.00;99.90
18753;DHT22;9505;50.882;5.350;2022-09-25T07:58:52;20.50;99.90
18753;DHT22;9505;50.882;5.350;2022-09-25T08:01:18;21.50;99.90
18753;DHT22;9505;50.882;5.350;2022-09-25T08:03:44;21.20;99.90
18753;DHT22;9505;50.882;5.350;2022-09-25T08:06:11;20.80;99.90
18753;DHT22;9505;50.882;5.350;2022-09-25T08:08:41;21.30;99.90
18753;DHT22;9505;50.882;5.350;2022-09-25T08:11:14;21.90;99.90
18753;DHT22;9505;50.882;5.350;2022-09-25T08:13:42;21.10;99.90
18753;DHT22;9505;50.882;5.350;2022-09-25T08:16:09;21.70;99.90
18753;DHT22;9505;50.882;5.350;2022-09-25T08:18:36;21.60;99.90
18753;DHT22;9505;50.882;5.350;2022-09-25T08:21:03;20.80;99.90
18753;DHT22;9505;50.882;5.350;2022-09-25T08:23:30;19.70;99.90
18753;DHT22;9505;50.882;5.350;2022-09-25T08:25:57;18.30;99.90
18753;DHT22;9505;50.882;5.350;2022-09-25T08:28:22;17.70;99.90
18753;DHT22;9505;50.882;5.350;2022-09-25T08:30:49;16.90;99.90
18753;DHT22;9505;50.882;5.350;2022-09-25T08:33:15;16.50;99.90
18753;DHT22;9505;50.882;5.350;2022-09-25T08:35:41;15.90;99.90
18753;DHT22;9505;50.882;5.350;2022-09-25T08:38:08;16.10;99.90
18753;DHT22;9505;50.882;5.350;2022-09-25T08:40:37;16.40;99.90
18753;DHT22;9505;50.882;5.350;2022-09-25T08:43:04;17.00;99.90
18753;DHT22;9505;50.882;5.350;2022-09-25T08:45:38;17.30;99.90
18753;DHT22;9505;50.882;5.350;2022-09-25T08:48:32;17.20;99.90
18753;DHT22;9505;50.882;5.350;2022-09-25T08:51:18;17.30;99.90
18753;DHT22;9505;50.882;5.350;2022-09-25T08:53:44;16.90;99.90
18753;DHT22;9505;50.882;5.350;2022-09-25T08:56:12;16.50;99.90
18753;DHT22;9505;50.882;5.350;2022-09-25T08:58:46;16.80;99.90
18753;DHT22;9505;50.882;5.350;2022-09-25T09:01:19;16.90;99.90
18753;DHT22;9505;50.882;5.350;2022-09-25T09:04:01;16.90;99.90
18753;DHT22;9505;50.882;5.350;2022-09-25T09:06:30;16.90;99.90
18753;DHT22;9505;50.882;5.350;2022-09-25T09:09:16;17.30;99.90
18753;DHT22;9505;50.882;5.350;2022-09-25T09:11:54;17.50;99.90
18753;DHT22;9505;50.882;5.350;2022-09-25T09:14:26;17.90;99.90
18753;DHT22;9505;50.882;5.350;2022-09-25T09:17:05;18.10;99.90
18753;DHT22;9505;50.882;5.350;2022-09-25T09:19:31;17.90;99.90
18753;DHT22;9505;50.882;5.350;2022-09-25T09:22:05;18.50;99.90
18753;DHT22;9505;50.882;5.350;2022-09-25T09:30:12;17.50;99.90
18753;DHT22;9505;50.882;5.350;2022-09-25T09:39:04;17.20;99.90
18753;DHT22;9505;50.882;5.350;2022-09-25T09:44:30;17.20;99.90
18753;DHT22;9505;50.882;5.350;2022-09-25T09:47:31;17.70;99.90
18753;DHT22;9505;50.882;5.350;2022-09-25T09:50:26;18.80;99.90
18753;DHT22;9505;50.882;5.350;2022-09-25T09:53:00;19.50;99.90
18753;DHT22;9505;50.882;5.350;2022-09-25T09:55:43;20.10;99.90
18753;DHT22;9505;50.882;5.350;2022-09-25T09:58:19;20.00;99.90
18753;DHT22;9505;50.882;5.350;2022-09-25T10:00:47;19.70;99.90
18753;DHT22;9505;50.882;5.350;2022-09-25T10:03:22;19.80;99.90
18753;DHT22;9505;50.882;5.350;2022-09-25T10:05:51;20.00;99.90
18753;DHT22;9505;50.882;5.350;2022-09-25T10:08:19;20.20;99.90
18753;DHT22;9505;50.882;5.350;2022-09-25T10:10:47;20.20;99.90
18753;DHT22;9505;50.882;5.350;2022-09-25T10:13:29;20.10;99.90
18753;DHT22;9505;50.882;5.350;2022-09-25T10:16:11;19.70;99.90
18753;DHT22;9505;50.882;5.350;2022-09-25T10:18:48;19.20;99.90
18753;DHT22;9505;50.882;5.350;2022-09-25T10:21:18;18.90;99.90
18753;DHT22;9505;50.882;5.350;2022-09-25T10:26:30;20.20;99.90
18753;DHT22;9505;50.882;5.350;2022-09-25T10:29:04;20.60;99.90
18753;DHT22;9505;50.882;5.350;2022-09-25T10:31:35;20.40;99.90
18753;DHT22;9505;50.882;5.350;2022-09-25T10:34:17;19.30;99.90
18753;DHT22;9505;50.882;5.350;2022-09-25T10:36:47;19.50;99.90
18753;DHT22;9505;50.882;5.350;2022-09-25T10:39:33;19.80;99.90
18753;DHT22;9505;50.882;5.350;2022-09-25T10:42:01;20.80;99.90
18753;DHT22;9505;50.882;5.350;2022-09-25T10:44:37;21.50;99.90
18753;DHT22;9505;50.882;5.350;2022-09-25T10:50:23;21.10;99.90
18753;DHT22;9505;50.882;5.350;2022-09-25T10:52:52;20.00;99.90
18753;DHT22;9505;50.882;5.350;2022-09-25T10:57:46;19.30;99.90
18753;DHT22;9505;50.882;5.350;2022-09-25T11:00:21;19.40;99.90
18753;DHT22;9505;50.882;5.350;2022-09-25T11:02:49;19.10;99.90
18753;DHT22;9505;50.882;5.350;2022-09-25T11:05:20;19.20;99.90
18753;DHT22;9505;50.882;5.350;2022-09-25T11:07:55;19.30;99.90
18753;DHT22;9505;50.882;5.350;2022-09-25T11:10:24;19.50;99.90
18753;DHT22;9505;50.882;5.350;2022-09-25T11:12:51;19.00;99.90
18753;DHT22;9505;50.882;5.350;2022-09-25T11:15:21;18.90;99.90
18753;DHT22;9505;50.882;5.350;2022-09-25T11:17:53;18.90;99.90
18753;DHT22;9505;50.882;5.350;2022-09-25T11:20:28;19.00;99.90
18753;DHT22;9505;50.882;5.350;2022-09-25T11:28:44;19.50;99.90
18753;DHT22;9505;50.882;5.350;2022-09-25T11:31:27;19.40;99.90
18753;DHT22;9505;50.882;5.350;2022-09-25T11:36:44;19.60;99.90
18753;DHT22;9505;50.882;5.350;2022-09-25T11:39:30;19.30;99.90
18753;DHT22;9505;50.882;5.350;2022-09-25T11:42:48;19.30;99.90
18753;DHT22;9505;50.882;5.350;2022-09-25T11:45:17;20.20;99.90
18753;DHT22;9505;50.882;5.350;2022-09-25T11:47:56;20.60;99.90
18753;DHT22;9505;50.882;5.350;2022-09-25T11:58:56;19.90;99.90
18753;DHT22;9505;50.882;5.350;2022-09-25T12:01:33;20.90;99.90
18753;DHT22;9505;50.882;5.350;2022-09-25T12:06:55;22.20;99.90
18753;DHT22;9505;50.882;5.350;2022-09-25T12:09:39;21.70;99.90
18753;DHT22;9505;50.882;5.350;2022-09-25T12:15:23;22.80;99.90
18753;DHT22;9505;50.882;5.350;2022-09-25T12:20:51;20.70;99.90
18753;DHT22;9505;50.882;5.350;2022-09-25T12:23:32;19.90;99.90
18753;DHT22;9505;50.882;5.350;2022-09-25T12:26:28;19.50;99.90
18753;DHT22;9505;50.882;5.350;2022-09-25T12:29:08;19.30;99.90
18753;DHT22;9505;50.882;5.350;2022-09-25T12:37:33;20.00;99.90
18753;DHT22;9505;50.882;5.350;2022-09-25T12:40:10;20.90;99.90
18753;DHT22;9505;50.882;5.350;2022-09-25T12:53:43;20.20;99.90
18753;DHT22;9505;50.882;5.350;2022-09-25T12:56:21;19.70;99.90
18753;DHT22;9505;50.882;5.350;2022-09-25T12:59:33;19.20;99.90
18753;DHT22;9505;50.882;5.350;2022-09-25T13:02:15;19.30;99.90
18753;DHT22;9505;50.882;5.350;2022-09-25T13:10:40;21.00;99.90
18753;DHT22;9505;50.882;5.350;2022-09-25T13:13:18;20.90;99.90
18753;DHT22;9505;50.882;5.350;2022-09-25T13:15:48;20.80;99.90
18753;DHT22;9505;50.882;5.350;2022-09-25T13:18:18;20.90;99.90
18753;DHT22;9505;50.882;5.350;2022-09-25T13:20:52;20.90;99.90
18753;DHT22;9505;50.882;5.350;2022-09-25T13:23:34;20.90;99.90
18753;DHT22;9505;50.882;5.350;2022-09-25T13:26:18;21.20;99.90
18753;DHT22;9505;50.882;5.350;2022-09-25T13:28:56;21.30;99.90
18753;DHT22;9505;50.882;5.350;2022-09-25T13:31:29;21.00;99.90
18753;DHT22;9505;50.882;5.350;2022-09-25T13:39:00;21.00;99.90
18753;DHT22;9505;50.882;5.350;2022-09-25T13:44:48;20.90;99.90
18753;DHT22;9505;50.882;5.350;2022-09-25T14:06:00;20.20;99.90
18753;DHT22;9505;50.882;5.350;2022-09-25T14:08:28;21.00;99.90
18753;DHT22;9505;50.882;5.350;2022-09-25T14:10:56;21.30;99.90
18753;DHT22;9505;50.882;5.350;2022-09-25T14:13:24;22.00;99.90
18753;DHT22;9505;50.882;5.350;2022-09-25T14:15:53;23.10;99.90
18753;DHT22;9505;50.882;5.350;2022-09-25T14:18:24;22.50;99.90
18753;DHT22;9505;50.882;5.350;2022-09-25T14:20:56;22.20;99.90
18753;DHT22;9505;50.882;5.350;2022-09-25T14:23:25;22.00;99.90
18753;DHT22;9505;50.882;5.350;2022-09-25T14:26:02;22.30;99.90
18753;DHT22;9505;50.882;5.350;2022-09-25T14:28:34;21.80;99.90
18753;DHT22;9505;50.882;5.350;2022-09-25T14:48:11;18.90;99.90
18753;DHT22;9505;50.882;5.350;2022-09-25T14:50:49;18.90;99.90
18753;DHT22;9505;50.882;5.350;2022-09-25T14:53:45;18.90;99.90
18753;DHT22;9505;50.882;5.350;2022-09-25T14:56:11;18.60;99.90
18753;DHT22;9505;50.882;5.350;2022-09-25T14:58:48;18.50;99.90
18753;DHT22;9505;50.882;5.350;2022-09-25T15:01:30;18.70;99.90
18753;DHT22;9505;50.882;5.350;2022-09-25T15:04:03;19.70;99.90
18753;DHT22;9505;50.882;5.350;2022-09-25T15:06:30;20.70;99.90
18753;DHT22;9505;50.882;5.350;2022-09-25T15:08:57;21.20;99.90
18753;DHT22;9505;50.882;5.350;2022-09-25T15:11:25;21.00;99.90
18753;DHT22;9505;50.882;5.350;2022-09-25T15:14:07;21.00;99.90
18753;DHT22;9505;50.882;5.350;2022-09-25T15:16:35;21.50;99.90
18753;DHT22;9505;50.882;5.350;2022-09-25T15:19:44;22.60;99.90
18753;DHT22;9505;50.882;5.350;2022-09-25T15:22:19;22.60;99.90
18753;DHT22;9505;50.882;5.350;2022-09-25T15:24:55;21.60;99.90
18753;DHT22;9505;50.882;5.350;2022-09-25T15:27:23;20.50;99.90
18753;DHT22;9505;50.882;5.350;2022-09-25T15:29:49;20.30;99.90
18753;DHT22;9505;50.882;5.350;2022-09-25T15:32:26;21.00;99.90
18753;DHT22;9505;50.882;5.350;2022-09-25T15:37:35;22.20;99.90
18753;DHT22;9505;50.882;5.350;2022-09-25T15:42:46;21.10;99.90
18753;DHT22;9505;50.882;5.350;2022-09-25T15:47:58;20.50;99.90
18753;DHT22;9505;50.882;5.350;2022-09-25T15:50:26;20.70;99.90
18753;DHT22;9505;50.882;5.350;2022-09-25T15:52:57;20.40;99.90
18753;DHT22;9505;50.882;5.350;2022-09-25T15:55:24;20.50;99.90
18753;DHT22;9505;50.882;5.350;2022-09-25T15:57:53;20.70;99.90
18753;DHT22;9505;50.882;5.350;2022-09-25T16:00:23;21.00;99.90
18753;DHT22;9505;50.882;5.350;2022-09-25T16:03:21;21.40;99.90
18753;DHT22;9505;50.882;5.350;2022-09-25T16:06:12;21.20;99.90
18753;DHT22;9505;50.882;5.350;2022-09-25T16:08:39;21.00;99.90
18753;DHT22;9505;50.882;5.350;2022-09-25T16:11:25;20.20;99.90
18753;DHT22;9505;50.882;5.350;2022-09-25T16:14:17;20.20;99.90
18753;DHT22;9505;50.882;5.350;2022-09-25T16:16:49;20.00;99.90
18753;DHT22;9505;50.882;5.350;2022-09-25T16:21:49;18.70;99.90
18753;DHT22;9505;50.882;5.350;2022-09-25T16:24:20;18.10;99.90
18753;DHT22;9505;50.882;5.350;2022-09-25T16:26:56;17.90;99.90
18753;DHT22;9505;50.882;5.350;2022-09-25T16:29:24;18.00;99.90
18753;DHT22;9505;50.882;5.350;2022-09-25T16:31:50;18.20;99.90
18753;DHT22;9505;50.882;5.350;2022-09-25T16:34:35;18.80;99.90
18753;DHT22;9505;50.882;5.350;2022-09-25T16:37:04;18.90;99.90
18753;DHT22;9505;50.882;5.350;2022-09-25T16:39:37;18.90;99.90
18753;DHT22;9505;50.882;5.350;2022-09-25T16:42:23;19.20;99.90
18753;DHT22;9505;50.882;5.350;2022-09-25T16:45:43;19.00;99.90
18753;DHT22;9505;50.882;5.350;2022-09-25T16:47:52;18.90;99.90
18753;DHT22;9505;50.882;5.350;2022-09-25T16:50:19;18.70;99.90
18753;DHT22;9505;50.882;5.350;2022-09-25T16:52:47;18.40;99.90
18753;DHT22;9505;50.882;5.350;2022-09-25T16:55:22;18.20;99.90
18753;DHT22;9505;50.882;5.350;2022-09-25T16:57:49;17.90;99.90
18753;DHT22;9505;50.882;5.350;2022-09-25T17:00:22;17.60;99.90
18753;DHT22;9505;50.882;5.350;2022-09-25T17:02:48;17.40;99.90
18753;DHT22;9505;50.882;5.350;2022-09-25T17:05:21;17.30;99.90
18753;DHT22;9505;50.882;5.350;2022-09-25T17:07:49;17.10;99.90
18753;DHT22;9505;50.882;5.350;2022-09-25T17:10:19;16.80;99.90
18753;DHT22;9505;50.882;5.350;2022-09-25T17:12:47;16.60;99.90
18753;DHT22;9505;50.882;5.350;2022-09-25T17:15:16;16.50;99.90
18753;DHT22;9505;50.882;5.350;2022-09-25T17:17:42;16.30;99.90
18753;DHT22;9505;50.882;5.350;2022-09-25T17:20:09;16.10;99.90
18753;DHT22;9505;50.882;5.350;2022-09-25T17:22:35;15.90;99.90
18753;DHT22;9505;50.882;5.350;2022-09-25T17:25:19;15.70;99.90
18753;DHT22;9505;50.882;5.350;2022-09-25T17:27:46;15.60;99.90
18753;DHT22;9505;50.882;5.350;2022-09-25T17:30:12;15.40;99.90
18753;DHT22;9505;50.882;5.350;2022-09-25T17:32:37;15.40;99.90
18753;DHT22;9505;50.882;5.350;2022-09-25T17:38:07;15.20;99.90
18753;DHT22;9505;50.882;5.350;2022-09-25T17:40:33;15.10;99.90
18753;DHT22;9505;50.882;5.350;2022-09-25T17:42:59;15.10;99.90
18753;DHT22;9505;50.882;5.350;2022-09-25T17:45:36;15.00;99.90
18753;DHT22;9505;50.882;5.350;2022-09-25T17:48:03;14.90;99.90
18753;DHT22;9505;50.882;5.350;2022-09-25T17:50:29;14.80;99.90
18753;DHT22;9505;50.882;5.350;2022-09-25T17:52:57;14.80;99.90
18753;DHT22;9505;50.882;5.350;2022-09-25T17:55:23;14.60;99.90
18753;DHT22;9505;50.882;5.350;2022-09-25T17:57:49;14.50;99.90
18753;DHT22;9505;50.882;5.350;2022-09-25T18:00:15;14.50;99.90
18753;DHT22;9505;50.882;5.350;2022-09-25T18:02:40;14.40;99.90
18753;DHT22;9505;50.882;5.350;2022-09-25T18:05:09;14.40;99.90
18753;DHT22;9505;50.882;5.350;2022-09-25T18:07:35;14.30;99.90
18753;DHT22;9505;50.882;5.350;2022-09-25T18:10:02;14.20;99.90
18753;DHT22;9505;50.882;5.350;2022-09-25T18:12:27;14.00;99.90
18753;DHT22;9505;50.882;5.350;2022-09-25T18:14:53;13.90;99.90
18753;DHT22;9505;50.882;5.350;2022-09-25T18:17:19;13.80;99.90
18753;DHT22;9505;50.882;5.350;2022-09-25T18:19:44;13.70;99.90
18753;DHT22;9505;50.882;5.350;2022-09-25T18:22:28;13.70;99.90
18753;DHT22;9505;50.882;5.350;2022-09-25T18:24:54;13.60;99.90
18753;DHT22;9505;50.882;5.350;2022-09-25T18:27:24;13.50;99.90
18753;DHT22;9505;50.882;5.350;2022-09-25T18:29:51;13.40;99.90
18753;DHT22;9505;50.882;5.350;2022-09-25T18:32:16;13.40;99.90
18753;DHT22;9505;50.882;5.350;2022-09-25T18:34:42;13.40;99.90
18753;DHT22;9505;50.882;5.350;2022-09-25T18:37:08;13.40;99.90
18753;DHT22;9505;50.882;5.350;2022-09-25T18:39:33;13.40;99.90
18753;DHT22;9505;50.882;5.350;2022-09-25T18:41:59;13.50;99.90
18753;DHT22;9505;50.882;5.350;2022-09-25T18:44:25;13.40;99.90